createdAt,value
2018-12-04T00:01:23.026Z,11.30
2018-12-04T00:06:32.437Z,11.30
2018-12-04T00:11:41.894Z,11.10
2018-12-04T00:16:51.363Z,10.90
2018-12-04T00:22:00.673Z,10.90
2018-12-04T00:27:10.030Z,10.80
2018-12-04T00:32:19.510Z,10.80
2018-12-04T00:37:28.986Z,10.80
2018-12-04T00:42:38.324Z,10.90
2018-12-04T00:47:47.735Z,10.90
2018-12-04T00:52:57.277Z,10.80
2018-12-04T00:58:06.913Z,10.80
2018-12-04T01:03:16.210Z,10.60
2018-12-04T01:08:25.595Z,10.80
2018-12-04T01:13:35.118Z,10.80
2018-12-04T01:18:44.465Z,10.80
2018-12-04T01:23:53.844Z,10.90
2018-12-04T01:29:03.178Z,10.90
2018-12-04T01:34:12.515Z,10.90
2018-12-04T01:39:23.623Z,10.80
2018-12-04T01:44:33.067Z,10.90
2018-12-04T01:49:43.065Z,10.80
2018-12-04T01:54:52.430Z,10.60
2018-12-04T02:00:01.787Z,10.70
2018-12-04T02:05:25.653Z,10.70
2018-12-04T02:10:35.062Z,10.60
2018-12-04T02:15:44.400Z,10.60
2018-12-04T02:20:53.706Z,10.40
2018-12-04T02:26:03.045Z,10.60
2018-12-04T02:31:12.382Z,10.60
2018-12-04T02:36:21.779Z,10.60
2018-12-04T02:41:31.118Z,10.70
2018-12-04T02:46:40.463Z,10.80
2018-12-04T02:51:49.785Z,10.60
2018-12-04T02:56:59.287Z,10.40
2018-12-04T03:02:08.737Z,10.50
2018-12-04T03:07:18.217Z,10.60
2018-12-04T03:12:27.803Z,10.40
2018-12-04T03:17:37.139Z,10.20
2018-12-04T03:22:46.477Z,10.00
2018-12-04T03:27:56.011Z,10.00
2018-12-04T03:33:05.376Z,10.10
2018-12-04T03:38:14.971Z,10.10
2018-12-04T03:43:24.537Z,10.10
2018-12-04T03:48:34.087Z,10.10
2018-12-04T03:53:43.438Z,10.10
2018-12-04T03:58:53.025Z,10.20
2018-12-04T04:04:02.882Z,10.20
2018-12-04T04:09:12.350Z,10.00
2018-12-04T04:14:21.931Z,9.80
2018-12-04T04:19:31.279Z,9.80
2018-12-04T04:24:40.710Z,10.00
2018-12-04T04:29:50.321Z,9.90
2018-12-04T04:34:59.698Z,9.90
2018-12-04T04:40:09.110Z,10.00
2018-12-04T04:45:18.578Z,10.00
2018-12-04T04:50:27.974Z,9.90
2018-12-04T04:55:37.306Z,9.80
2018-12-04T05:00:46.822Z,8.30
2018-12-04T05:05:56.186Z,9.70
2018-12-04T05:11:05.625Z,9.70
2018-12-04T05:16:15.114Z,9.70
2018-12-04T05:21:24.443Z,9.60
2018-12-04T05:26:33.790Z,9.70
2018-12-04T05:31:43.102Z,9.60
2018-12-04T05:36:52.722Z,9.60
2018-12-04T05:42:02.370Z,9.70
2018-12-04T05:47:11.798Z,9.80
2018-12-04T05:52:21.154Z,10.00
2018-12-04T05:57:30.526Z,9.60
2018-12-04T06:02:39.867Z,9.70
2018-12-04T06:07:49.390Z,9.80
2018-12-04T06:12:58.870Z,9.80
2018-12-04T06:18:08.294Z,9.90
2018-12-04T06:23:17.995Z,9.90
2018-12-04T06:28:27.282Z,9.90
2018-12-04T06:33:36.759Z,9.40
2018-12-04T06:38:46.168Z,9.50
2018-12-04T06:43:55.826Z,9.50
2018-12-04T06:49:05.270Z,9.50
2018-12-04T06:54:14.602Z,9.60
2018-12-04T06:59:23.942Z,9.60
2018-12-04T07:04:33.285Z,9.60
2018-12-04T07:09:42.642Z,9.40
2018-12-04T07:14:52.054Z,9.40
2018-12-04T07:20:01.398Z,9.30
2018-12-04T07:25:10.799Z,9.40
2018-12-04T07:30:20.373Z,9.40
2018-12-04T07:35:29.845Z,9.60
2018-12-04T07:40:39.242Z,9.70
2018-12-04T07:45:48.557Z,9.80
2018-12-04T07:50:57.977Z,9.50
2018-12-04T07:56:07.549Z,9.60
2018-12-04T08:01:16.847Z,9.70
2018-12-04T08:06:26.206Z,9.70
2018-12-04T08:11:35.607Z,9.70
2018-12-04T08:16:44.927Z,9.60
2018-12-04T08:21:54.388Z,9.70
2018-12-04T08:27:04.015Z,9.80
2018-12-04T08:32:13.554Z,9.70
2018-12-04T08:37:22.919Z,9.70
2018-12-04T08:42:32.218Z,9.90
2018-12-04T08:47:41.647Z,12.40
2018-12-04T08:52:51.174Z,14.90
2018-12-04T08:58:00.509Z,15.20
2018-12-04T09:03:09.881Z,16.00
2018-12-04T09:08:19.209Z,17.30
2018-12-04T09:13:28.562Z,17.70
2018-12-04T09:18:38.054Z,18.40
2018-12-04T09:23:47.461Z,18.50
2018-12-04T09:28:57.076Z,19.40
2018-12-04T09:34:06.558Z,19.00
2018-12-04T09:39:15.917Z,19.60
2018-12-04T09:44:25.403Z,18.70
2018-12-04T09:49:34.762Z,17.10
2018-12-04T09:54:44.126Z,18.00
2018-12-04T09:59:53.542Z,19.50
2018-12-04T10:05:02.896Z,16.70
2018-12-04T10:10:12.322Z,17.40
2018-12-04T10:15:21.893Z,18.70
2018-12-04T10:20:31.394Z,20.40
2018-12-04T10:25:45.021Z,20.50
2018-12-04T10:31:00.040Z,20.20
2018-12-04T10:36:09.655Z,21.80
2018-12-04T10:41:18.982Z,22.00
2018-12-04T10:46:28.338Z,21.50
2018-12-04T10:51:37.906Z,22.30
2018-12-04T10:56:47.330Z,22.40
2018-12-04T11:02:02.169Z,21.30
2018-12-04T11:07:11.538Z,19.50
2018-12-04T11:12:21.062Z,18.50
2018-12-04T11:17:30.425Z,16.90
2018-12-04T11:22:39.846Z,16.00
2018-12-04T11:27:49.658Z,15.70
2018-12-04T11:32:59.174Z,18.50
2018-12-04T11:38:08.535Z,20.00
2018-12-04T11:43:17.894Z,18.80
2018-12-04T11:48:27.271Z,18.70
2018-12-04T11:53:36.606Z,19.10
2018-12-04T11:58:46.787Z,19.00
2018-12-04T12:03:56.297Z,17.00
2018-12-04T12:09:09.080Z,17.20
2018-12-04T12:14:18.616Z,18.40
2018-12-04T12:19:28.247Z,18.50
2018-12-04T12:24:37.627Z,17.00
2018-12-04T12:29:46.948Z,17.50
2018-12-04T12:34:57.259Z,15.90
2018-12-04T12:40:08.484Z,15.10
2018-12-04T12:45:17.869Z,14.60
2018-12-04T12:50:27.234Z,14.50
2018-12-04T12:55:36.706Z,15.60
2018-12-04T13:00:46.078Z,14.10
2018-12-04T13:05:55.519Z,13.30
2018-12-04T13:11:05.055Z,12.70
2018-12-04T13:16:14.530Z,12.40
2018-12-04T13:21:23.839Z,14.10
2018-12-04T13:26:33.246Z,16.00
2018-12-04T13:31:42.599Z,16.40
2018-12-04T13:36:52.022Z,17.00
2018-12-04T13:42:02.651Z,17.30
2018-12-04T13:47:12.198Z,17.70
2018-12-04T13:52:21.883Z,17.40
2018-12-04T13:57:31.250Z,17.20
2018-12-04T14:02:40.603Z,16.80
2018-12-04T14:07:50.006Z,16.60
2018-12-04T14:12:59.491Z,16.40
2018-12-04T14:18:09.508Z,14.40
2018-12-04T14:23:19.021Z,13.30
2018-12-04T14:28:29.431Z,12.70
2018-12-04T14:33:38.966Z,12.40
2018-12-04T14:38:48.375Z,12.10
2018-12-04T14:43:58.055Z,12.00
2018-12-04T14:49:07.996Z,11.90
2018-12-04T14:54:17.636Z,11.80
2018-12-04T14:59:27.478Z,11.70
2018-12-04T15:04:37.034Z,11.50
2018-12-04T15:09:46.433Z,11.30
2018-12-04T15:14:56.042Z,11.30
2018-12-04T15:20:06.951Z,11.20
2018-12-04T15:25:16.598Z,11.10
2018-12-04T15:30:26.036Z,11.00
2018-12-04T15:35:35.631Z,10.90
2018-12-04T15:40:44.982Z,10.80
2018-12-04T15:46:08.363Z,10.70
2018-12-04T15:51:17.918Z,10.50
2018-12-04T15:56:27.558Z,10.50
2018-12-04T16:01:38.404Z,10.30
2018-12-04T16:06:49.312Z,10.30
2018-12-04T16:11:58.916Z,10.30
2018-12-04T16:17:14.884Z,10.30
2018-12-04T16:22:19.865Z,10.10
2018-12-04T16:27:29.188Z,10.00
2018-12-04T16:32:38.510Z,10.00
2018-12-04T16:37:47.876Z,9.90
2018-12-04T16:42:57.295Z,9.90
2018-12-04T16:48:06.639Z,9.80
2018-12-04T16:53:16.203Z,9.60
2018-12-04T16:58:25.794Z,9.40
2018-12-04T17:03:35.176Z,9.40
2018-12-04T17:08:44.586Z,8.90
2018-12-04T17:13:54.153Z,8.70
2018-12-04T17:19:03.881Z,9.10
2018-12-04T17:24:13.414Z,9.40
2018-12-04T17:29:23.080Z,9.30
2018-12-04T17:34:32.559Z,9.40
2018-12-04T17:39:42.463Z,9.50
2018-12-04T17:44:51.959Z,9.40
2018-12-04T17:50:01.625Z,9.50
2018-12-04T17:55:11.131Z,9.50
2018-12-04T18:00:20.737Z,9.40
2018-12-04T18:05:30.150Z,9.30
2018-12-04T18:10:39.775Z,9.20
2018-12-04T18:15:49.291Z,8.70
2018-12-04T18:20:58.799Z,7.30
2018-12-04T18:26:08.403Z,7.30
2018-12-04T18:31:17.912Z,7.70
2018-12-04T18:36:27.289Z,8.00
2018-12-04T18:41:36.979Z,7.80
2018-12-04T18:46:46.611Z,7.90
2018-12-04T18:51:56.221Z,8.30
2018-12-04T18:57:05.795Z,8.70
2018-12-04T19:02:15.438Z,8.90
2018-12-04T19:07:25.027Z,8.10
2018-12-04T19:12:34.515Z,7.90
2018-12-04T19:17:44.106Z,8.30
2018-12-04T19:22:53.826Z,8.50
2018-12-04T19:28:03.309Z,8.50
2018-12-04T19:33:12.764Z,8.20
2018-12-04T19:38:22.182Z,8.00
2018-12-04T19:43:31.510Z,8.20
2018-12-04T19:48:41.063Z,8.40
2018-12-04T19:53:50.454Z,8.10
2018-12-04T19:59:00.022Z,8.30
2018-12-04T20:04:09.686Z,8.00
2018-12-04T20:09:19.265Z,7.80
2018-12-04T20:14:28.898Z,7.60
2018-12-04T20:19:38.530Z,7.80
2018-12-04T20:24:47.902Z,7.90
2018-12-04T20:29:57.628Z,8.10
2018-12-04T20:35:07.470Z,8.10
2018-12-04T20:40:17.157Z,8.10
2018-12-04T20:45:26.900Z,8.10
2018-12-04T20:50:36.479Z,8.20
2018-12-04T20:55:45.857Z,8.20
2018-12-04T21:00:55.481Z,8.10
2018-12-04T21:06:05.210Z,8.20
2018-12-04T21:11:15.271Z,8.10
2018-12-04T21:16:24.834Z,7.40
2018-12-04T21:21:34.448Z,6.80
2018-12-04T21:26:45.281Z,5.90
2018-12-04T21:32:00.224Z,5.50
2018-12-04T21:37:16.096Z,5.40
2018-12-04T21:42:31.027Z,5.40
2018-12-04T21:47:46.179Z,5.60
2018-12-04T21:52:57.784Z,6.10
2018-12-04T21:58:36.176Z,6.30
